createdAt,value
2017-04-21T00:00:27.627Z,44.30
2017-04-21T00:01:27.001Z,44.30
2017-04-21T00:02:26.587Z,44.20
2017-04-21T00:03:32.928Z,44.30
2017-04-21T00:04:29.092Z,44.20
2017-04-21T00:05:37.871Z,44.20
2017-04-21T00:06:40.129Z,44.40
2017-04-21T00:07:34.071Z,44.20
2017-04-21T00:08:33.279Z,44.40
2017-04-21T00:09:28.826Z,44.40
2017-04-21T00:10:37.918Z,44.30
2017-04-21T00:11:32.235Z,44.40
2017-04-21T00:12:44.885Z,44.40
2017-04-21T00:13:29.565Z,44.40
2017-04-21T00:14:27.593Z,44.40
2017-04-21T00:15:37.384Z,is
2017-04-21T00:16:33.856Z,44.40
2017-04-21T00:17:34.151Z,44.60
2017-04-21T00:18:38.296Z,44.70
2017-04-21T00:19:32.974Z,44.70
2017-04-21T00:20:38.549Z,45.00
2017-04-21T00:21:33.859Z,45.10
2017-04-21T00:22:32.617Z,45.20
2017-04-21T00:23:36.520Z,45.10
2017-04-21T00:24:36.522Z,45.10
2017-04-21T00:25:25.864Z,45.10
2017-04-21T00:26:32.920Z,45.10
2017-04-21T00:27:34.927Z,45.10
2017-04-21T00:28:33.146Z,45.20
2017-04-21T00:29:32.847Z,45.10
2017-04-21T00:30:26.094Z,45.10
2017-04-21T00:31:33.847Z,is
2017-04-21T00:32:38.146Z,45.20
2017-04-21T00:33:32.098Z,45.20
2017-04-21T00:34:27.708Z,is
2017-04-21T00:35:26.683Z,45.10
2017-04-21T00:36:26.996Z,45.10
2017-04-21T00:37:28.347Z,45.20
2017-04-21T00:38:29.045Z,45.10
2017-04-21T00:39:28.396Z,45.10
2017-04-21T00:40:28.939Z,45.20
2017-04-21T00:41:29.602Z,45.20
2017-04-21T00:42:28.952Z,45.10
2017-04-21T00:43:29.476Z,45.10
2017-04-21T00:44:37.037Z,45.10
2017-04-21T00:45:33.617Z,45.10
2017-04-21T00:46:37.978Z,45.10
2017-04-21T00:47:30.147Z,45.20
2017-04-21T00:48:46.749Z,45.10
2017-04-21T00:49:29.898Z,45.20
2017-04-21T00:50:45.286Z,45.20
2017-04-21T00:51:34.969Z,45.10
2017-04-21T00:52:29.917Z,45.30
2017-04-21T00:53:28.956Z,45.10
2017-04-21T00:54:37.184Z,45.10
2017-04-21T00:55:38.711Z,45.10
2017-04-21T00:56:26.768Z,45.10
2017-04-21T00:57:39.331Z,45.10
2017-04-21T00:58:33.536Z,is
2017-04-21T00:59:32.965Z,45.10
2017-04-21T01:00:33.213Z,45.10
2017-04-21T01:01:28.673Z,45.20
2017-04-21T01:02:37.193Z,45.10
2017-04-21T01:03:38.691Z,45.10
2017-04-21T01:04:47.080Z,45.20
2017-04-21T01:05:39.875Z,45.10
2017-04-21T01:06:37.732Z,45.20
2017-04-21T01:07:42.599Z,45.10
2017-04-21T01:08:31.277Z,45.20
2017-04-21T01:09:41.308Z,45.20
2017-04-21T01:10:39.362Z,45.20
2017-04-21T01:11:37.342Z,45.20
2017-04-21T01:12:26.089Z,45.20
2017-04-21T01:14:46.331Z,45.20
2017-04-21T01:15:38.653Z,45.10
2017-04-21T01:16:34.452Z,45.20
2017-04-21T01:17:26.368Z,45.20
2017-04-21T01:18:37.801Z,45.20
2017-04-21T01:19:37.130Z,45.10
2017-04-21T01:20:41.546Z,45.20
2017-04-21T01:21:42.891Z,45.10
2017-04-21T01:22:31.799Z,45.50
2017-04-21T01:23:39.696Z,45.10
2017-04-21T01:24:42.991Z,is
2017-04-21T01:25:32.866Z,45.10
2017-04-21T01:26:29.551Z,is
2017-04-21T01:27:33.013Z,45.20
2017-04-21T01:28:33.582Z,45.20
2017-04-21T01:29:33.490Z,45.20
2017-04-21T01:30:31.605Z,45.10
2017-04-21T01:31:38.767Z,45.10
2017-04-21T01:32:37.126Z,45.10
2017-04-21T01:33:37.114Z,45.10
2017-04-21T01:34:33.353Z,45.10
2017-04-21T01:35:37.445Z,45.20
2017-04-21T01:36:33.728Z,45.20
2017-04-21T01:37:38.549Z,is
2017-04-21T01:38:38.573Z,45.10
2017-04-21T01:39:39.256Z,45.10
2017-04-21T01:40:34.286Z,45.10
2017-04-21T01:41:37.285Z,45.10
2017-04-21T01:42:32.746Z,45.20
2017-04-21T01:43:31.093Z,45.10
2017-04-21T01:44:34.620Z,45.10
2017-04-21T01:45:37.841Z,45.20
2017-04-21T01:46:36.296Z,45.10
2017-04-21T01:47:38.080Z,45.10
2017-04-21T01:48:33.300Z,45.10
2017-04-21T01:49:47.631Z,45.20
2017-04-21T01:50:26.802Z,45.10
2017-04-21T01:51:32.887Z,45.20
2017-04-21T01:52:27.746Z,45.10
2017-04-21T01:53:32.888Z,45.20
2017-04-21T01:54:33.300Z,45.10
2017-04-21T01:55:29.298Z,45.10
2017-04-21T01:56:39.687Z,45.20
2017-04-21T01:57:41.668Z,45.20
2017-04-21T01:58:41.583Z,45.20
2017-04-21T01:59:35.693Z,45.20
2017-04-21T02:00:38.218Z,45.20
2017-04-21T02:01:27.099Z,is
2017-04-21T02:02:31.897Z,45.10
2017-04-21T02:03:27.620Z,45.10
2017-04-21T02:04:22.674Z,45.10
2017-04-21T02:05:27.086Z,45.10
2017-04-21T02:06:28.816Z,45.10
2017-04-21T02:07:28.101Z,45.10
2017-04-21T02:08:33.024Z,is
2017-04-21T02:09:29.258Z,45.10
2017-04-21T02:10:27.756Z,45.20
2017-04-21T02:11:26.688Z,45.20
2017-04-21T02:12:27.393Z,45.20
2017-04-21T02:13:28.721Z,45.20
2017-04-21T02:14:27.588Z,45.10
2017-04-21T02:15:47.091Z,45.10
2017-04-21T02:16:37.238Z,45.10
2017-04-21T02:17:26.427Z,45.10
2017-04-21T02:18:28.768Z,45.10
2017-04-21T02:19:39.055Z,45.20
2017-04-21T02:20:33.482Z,45.10
2017-04-21T02:21:33.901Z,45.20
2017-04-21T02:22:32.986Z,45.30
2017-04-21T02:23:38.084Z,is
2017-04-21T02:24:33.523Z,45.20
2017-04-21T02:25:33.552Z,45.20
2017-04-21T02:26:26.707Z,45.10
2017-04-21T02:27:37.509Z,45.10
2017-04-21T02:28:33.053Z,is
2017-04-21T02:29:33.218Z,45.10
2017-04-21T02:30:33.644Z,45.10
2017-04-21T02:31:33.750Z,45.20
2017-04-21T02:32:29.068Z,45.20
2017-04-21T02:33:39.051Z,45.10
2017-04-21T02:34:34.259Z,45.20
2017-04-21T02:35:26.905Z,45.10
2017-04-21T02:36:27.510Z,is
2017-04-21T02:37:28.910Z,45.10
2017-04-21T02:38:29.137Z,45.00
2017-04-21T02:39:29.078Z,45.20
2017-04-21T02:40:33.063Z,45.10
2017-04-21T02:41:34.023Z,45.10
2017-04-21T02:42:27.327Z,45.10
2017-04-21T02:43:34.031Z,45.00
2017-04-21T02:44:33.077Z,45.10
2017-04-21T02:45:27.463Z,is
2017-04-21T02:46:32.007Z,45.20
2017-04-21T02:47:33.079Z,45.00
2017-04-21T02:48:47.711Z,45.10
2017-04-21T02:49:32.151Z,45.20
2017-04-21T02:50:33.382Z,45.20
2017-04-21T02:51:29.485Z,45.10
2017-04-21T02:52:34.029Z,45.20
2017-04-21T02:53:32.843Z,45.10
2017-04-21T02:54:43.823Z,45.10
2017-04-21T02:55:33.175Z,45.10
2017-04-21T02:56:33.284Z,45.10
2017-04-21T02:57:28.576Z,45.20
2017-04-21T02:58:37.330Z,45.10
2017-04-21T02:59:37.475Z,45.20
2017-04-21T03:00:32.846Z,45.60
2017-04-21T03:01:38.784Z,is
2017-04-21T03:02:32.798Z,45.10
2017-04-21T03:03:28.790Z,45.10
2017-04-21T03:04:29.554Z,45.00
2017-04-21T03:05:29.394Z,45.10
2017-04-21T03:06:35.155Z,45.10
2017-04-21T03:07:27.754Z,is
2017-04-21T03:08:27.106Z,45.10
2017-04-21T03:09:27.159Z,45.20
2017-04-21T03:10:28.567Z,45.20
2017-04-21T03:11:33.988Z,45.00
2017-04-21T03:12:38.637Z,45.00
2017-04-21T03:13:27.509Z,45.00
2017-04-21T03:14:29.211Z,45.00
2017-04-21T03:15:31.354Z,45.00
2017-04-21T03:16:33.890Z,45.00
2017-04-21T03:17:32.394Z,is
2017-04-21T03:18:36.596Z,45.10
2017-04-21T03:19:26.882Z,45.00
2017-04-21T03:20:33.111Z,45.10
2017-04-21T03:21:28.581Z,45.00
2017-04-21T03:22:27.775Z,45.00
2017-04-21T03:23:28.569Z,45.00
2017-04-21T03:24:34.397Z,45.00
2017-04-21T03:25:28.530Z,44.90
2017-04-21T03:26:33.864Z,45.00
2017-04-21T03:27:42.400Z,45.00
2017-04-21T03:28:27.786Z,is
2017-04-21T03:29:34.025Z,45.10
2017-04-21T03:30:44.313Z,45.00
2017-04-21T03:31:33.008Z,45.20
2017-04-21T03:32:33.474Z,45.00
2017-04-21T03:33:37.977Z,45.10
2017-04-21T03:34:33.608Z,45.20
2017-04-21T03:35:29.510Z,45.10
2017-04-21T03:36:28.145Z,45.10
2017-04-21T03:37:33.752Z,45.10
2017-04-21T03:38:42.460Z,45.20
2017-04-21T03:39:35.282Z,45.30
2017-04-21T03:40:27.076Z,45.40
2017-04-21T03:41:27.774Z,is
2017-04-21T03:42:37.339Z,45.30
2017-04-21T03:43:33.209Z,45.50
2017-04-21T03:44:44.581Z,45.50
2017-04-21T03:45:34.052Z,45.50
2017-04-21T03:46:29.161Z,45.50
2017-04-21T03:47:23.152Z,45.50
2017-04-21T03:48:33.515Z,45.50
2017-04-21T03:49:28.629Z,45.70
2017-04-21T03:50:33.294Z,45.60
2017-04-21T03:51:35.902Z,45.70
2017-04-21T03:52:27.031Z,45.70
2017-04-21T03:53:32.940Z,45.70
2017-04-21T03:54:29.178Z,45.70
2017-04-21T03:55:38.695Z,45.70
2017-04-21T03:56:39.290Z,45.80
2017-04-21T03:57:32.928Z,45.80
2017-04-21T03:58:34.702Z,45.70
2017-04-21T03:59:34.327Z,45.70
2017-04-21T04:00:34.007Z,45.40
2017-04-21T04:01:27.794Z,46.10
2017-04-21T04:02:26.792Z,45.90
2017-04-21T04:03:32.786Z,46.00
2017-04-21T04:04:27.801Z,46.00
2017-04-21T04:05:27.711Z,46.00
2017-04-21T04:06:38.346Z,46.00
2017-04-21T04:07:32.953Z,45.90
2017-04-21T04:08:29.444Z,45.90
2017-04-21T04:09:33.226Z,46.00
2017-04-21T04:10:28.994Z,45.90
2017-04-21T04:11:37.136Z,46.00
2017-04-21T04:12:33.379Z,45.90
2017-04-21T04:13:39.059Z,is
2017-04-21T04:14:27.579Z,45.90
2017-04-21T04:15:27.487Z,45.90
2017-04-21T04:16:28.975Z,46.00
2017-04-21T04:17:34.927Z,46.00
2017-04-21T04:18:30.244Z,45.80
2017-04-21T04:19:29.636Z,45.90
2017-04-21T04:20:29.273Z,45.80
2017-04-21T04:21:34.339Z,45.90
2017-04-21T04:22:33.495Z,45.80
2017-04-21T04:23:38.893Z,45.80
2017-04-21T04:24:33.955Z,45.90
2017-04-21T04:27:00.408Z,46.00
2017-04-21T04:27:37.598Z,46.10
2017-04-21T04:28:38.824Z,46.00
2017-04-21T04:29:32.674Z,46.00
2017-04-21T04:30:33.495Z,is
2017-04-21T04:31:36.835Z,45.90
2017-04-21T04:32:29.404Z,45.10
2017-04-21T04:33:27.230Z,46.10
2017-04-21T04:34:33.002Z,45.90
2017-04-21T04:35:32.896Z,is
2017-04-21T04:36:27.006Z,45.90
2017-04-21T04:37:33.495Z,45.90
2017-04-21T04:38:33.903Z,46.10
2017-04-21T04:39:34.012Z,46.10
2017-04-21T04:40:33.501Z,46.00
2017-04-21T04:41:32.287Z,45.80
2017-04-21T04:42:33.605Z,45.90
2017-04-21T04:43:41.924Z,46.00
2017-04-21T04:44:26.875Z,45.90
2017-04-21T04:45:37.238Z,46.00
2017-04-21T04:46:27.376Z,45.80
2017-04-21T04:47:37.408Z,46.00
2017-04-21T04:48:36.395Z,46.00
2017-04-21T04:49:26.792Z,45.90
2017-04-21T04:50:33.998Z,45.90
2017-04-21T04:51:33.611Z,45.70
2017-04-21T04:52:29.083Z,45.90
2017-04-21T04:53:28.662Z,45.80
2017-04-21T04:54:38.199Z,45.70
2017-04-21T04:55:34.319Z,45.80
2017-04-21T04:56:34.269Z,45.80
2017-04-21T04:57:35.859Z,46.00
2017-04-21T04:58:32.893Z,46.10
2017-04-21T04:59:32.774Z,46.20
2017-04-21T05:00:28.684Z,46.10
2017-04-21T05:01:38.605Z,46.20
2017-04-21T05:02:33.110Z,46.20
2017-04-21T05:03:32.884Z,46.20
2017-04-21T05:04:28.685Z,46.00
2017-04-21T05:05:28.986Z,is
2017-04-21T05:06:26.850Z,45.90
2017-04-21T05:07:33.032Z,is
2017-04-21T05:08:27.222Z,is
2017-04-21T05:09:27.030Z,45.90
2017-04-21T05:10:35.480Z,45.90
2017-04-21T05:11:28.142Z,45.90
2017-04-21T05:12:27.507Z,46.00
2017-04-21T05:13:22.408Z,45.90
2017-04-21T05:14:33.656Z,45.90
2017-04-21T05:15:28.701Z,46.10
2017-04-21T05:16:23.548Z,46.10
2017-04-21T05:17:37.379Z,46.00
2017-04-21T05:18:23.345Z,46.00
2017-04-21T05:19:33.302Z,45.90
2017-04-21T05:20:26.901Z,45.80
2017-04-21T05:21:26.560Z,45.80
2017-04-21T05:22:27.522Z,45.80
2017-04-21T05:23:27.165Z,45.70
2017-04-21T05:24:27.996Z,45.70
2017-04-21T05:25:34.359Z,45.70
2017-04-21T05:26:28.148Z,45.90
2017-04-21T05:27:26.857Z,46.00
2017-04-21T05:28:27.130Z,45.90
2017-04-21T05:29:27.468Z,45.70
2017-04-21T05:30:37.227Z,45.80
2017-04-21T05:31:27.339Z,45.70
2017-04-21T05:32:32.279Z,45.70
2017-04-21T05:33:28.179Z,45.70
2017-04-21T05:34:27.860Z,45.60
2017-04-21T05:35:23.587Z,45.70
2017-04-21T05:36:23.686Z,45.70
2017-04-21T05:37:32.919Z,45.70
2017-04-21T05:38:28.301Z,45.70
2017-04-21T05:39:25.761Z,45.70
2017-04-21T05:40:18.058Z,45.90
2017-04-21T05:41:20.860Z,45.70
2017-04-21T05:42:24.126Z,45.70
2017-04-21T05:43:28.405Z,45.80
2017-04-21T05:44:27.625Z,45.90
2017-04-21T05:45:26.458Z,45.80
2017-04-21T05:46:27.524Z,45.90
2017-04-21T05:47:22.713Z,45.90
2017-04-21T05:48:28.008Z,46.00
2017-04-21T05:49:27.622Z,46.00
2017-04-21T05:50:24.317Z,46.10
2017-04-21T05:51:25.515Z,46.10
2017-04-21T05:52:27.372Z,46.00
2017-04-21T05:53:20.923Z,46.00
2017-04-21T05:54:25.973Z,46.20
2017-04-21T05:55:36.954Z,46.20
2017-04-21T05:56:39.092Z,46.00
2017-04-21T05:57:27.828Z,46.00
2017-04-21T05:58:29.119Z,46.20
2017-04-21T05:59:29.120Z,46.10
2017-04-21T06:00:38.947Z,46.10
2017-04-21T06:01:36.641Z,46.00
2017-04-21T06:02:25.908Z,46.60
2017-04-21T06:03:26.551Z,46.00
2017-04-21T06:04:33.393Z,46.10
2017-04-21T06:05:32.977Z,45.90
2017-04-21T06:06:37.766Z,45.10
2017-04-21T06:07:34.081Z,29.40
2017-04-21T06:08:33.763Z,26.40
2017-04-21T06:09:28.444Z,26.30
2017-04-21T06:10:29.185Z,25.30
2017-04-21T06:11:33.222Z,26.00
2017-04-21T06:12:21.249Z,25.70
2017-04-21T06:13:27.081Z,24.90
2017-04-21T06:14:27.225Z,25.50
2017-04-21T06:15:26.772Z,25.40
2017-04-21T06:16:32.984Z,25.90
2017-04-21T06:17:33.812Z,25.50
2017-04-21T06:18:33.924Z,25.00
2017-04-21T06:19:28.794Z,25.50
2017-04-21T06:20:28.523Z,26.70
2017-04-21T06:21:40.977Z,27.70
2017-04-21T06:22:37.215Z,29.90
2017-04-21T06:23:27.846Z,29.80
2017-04-21T06:24:27.576Z,30.80
2017-04-21T06:25:27.405Z,30.40
2017-04-21T06:26:28.037Z,30.00
2017-04-21T06:27:28.804Z,31.20
2017-04-21T06:28:37.798Z,30.60
2017-04-21T06:29:33.396Z,31.40
2017-04-21T06:30:33.780Z,31.30
2017-04-21T06:31:33.706Z,31.10
2017-04-21T06:32:34.021Z,30.90
2017-04-21T06:33:33.540Z,31.20
2017-04-21T06:34:34.816Z,31.70
2017-04-21T06:35:26.907Z,31.80
2017-04-21T06:36:27.395Z,32.00
2017-04-21T06:37:28.797Z,32.00
2017-04-21T06:38:37.795Z,32.00
2017-04-21T06:39:33.204Z,31.90
2017-04-21T06:40:30.604Z,32.00
2017-04-21T06:41:26.851Z,32.00
2017-04-21T06:42:37.156Z,32.00
2017-04-21T06:43:33.957Z,32.10
2017-04-21T06:44:27.765Z,32.10
2017-04-21T06:45:27.127Z,32.50
2017-04-21T06:46:40.063Z,32.70
2017-04-21T06:47:33.491Z,32.80
2017-04-21T06:48:34.062Z,33.10
2017-04-21T06:49:32.885Z,33.20
2017-04-21T06:50:29.512Z,33.40
2017-04-21T06:51:38.221Z,33.50
2017-04-21T06:52:29.158Z,33.70
2017-04-21T06:53:29.418Z,33.90
2017-04-21T06:54:29.282Z,33.80
2017-04-21T06:55:33.343Z,34.00
2017-04-21T06:56:33.162Z,34.20
2017-04-21T06:57:40.016Z,34.20
2017-04-21T06:58:35.237Z,34.30
2017-04-21T06:59:27.360Z,34.50
2017-04-21T07:00:47.514Z,34.60
2017-04-21T07:01:26.994Z,34.70
2017-04-21T07:02:26.806Z,is
2017-04-21T07:03:33.796Z,34.90
2017-04-21T07:04:33.019Z,35.00
2017-04-21T07:05:23.933Z,35.20
2017-04-21T07:06:28.503Z,35.20
2017-04-21T07:07:33.982Z,35.30
2017-04-21T07:08:35.299Z,35.50
2017-04-21T07:09:32.256Z,35.50
2017-04-21T07:10:41.563Z,35.60
2017-04-21T07:11:32.990Z,is
2017-04-21T07:12:28.537Z,35.80
2017-04-21T07:13:35.610Z,36.00
2017-04-21T07:14:34.313Z,36.20
2017-04-21T07:15:35.426Z,36.50
2017-04-21T07:16:36.456Z,36.80
2017-04-21T07:17:37.260Z,36.90
2017-04-21T07:18:40.432Z,37.70
2017-04-21T07:19:26.740Z,37.70
2017-04-21T07:20:40.656Z,37.70
2017-04-21T07:21:35.188Z,38.30
2017-04-21T07:22:31.793Z,38.50
2017-04-21T07:23:32.796Z,38.60
2017-04-21T07:24:33.483Z,38.70
2017-04-21T07:25:30.237Z,38.60
2017-04-21T07:26:29.209Z,38.90
2017-04-21T07:27:28.512Z,38.80
2017-04-21T07:28:28.555Z,39.20
2017-04-21T07:29:33.466Z,is
2017-04-21T07:31:34.363Z,39.40
2017-04-21T07:32:27.364Z,39.30
2017-04-21T07:33:27.522Z,39.40
2017-04-21T07:34:34.493Z,is
2017-04-21T07:35:27.785Z,39.70
2017-04-21T07:36:38.703Z,39.70
2017-04-21T07:38:33.560Z,39.90
2017-04-21T07:39:26.785Z,40.00
2017-04-21T07:40:39.071Z,40.20
2017-04-21T07:41:34.280Z,is
2017-04-21T07:42:35.589Z,40.40
2017-04-21T07:43:30.772Z,40.40
2017-04-21T07:44:26.974Z,40.50
2017-04-21T07:45:37.488Z,40.50
2017-04-21T07:46:39.475Z,40.60
2017-04-21T07:47:28.521Z,40.60
2017-04-21T07:48:28.927Z,40.60
2017-04-21T07:49:27.991Z,40.60
2017-04-21T07:50:24.106Z,40.70
2017-04-21T07:51:33.588Z,40.70
2017-04-21T07:52:34.676Z,40.70
2017-04-21T07:53:40.598Z,40.80
2017-04-21T07:54:35.434Z,40.90
2017-04-21T07:55:28.873Z,40.90
2017-04-21T07:56:27.602Z,is
2017-04-21T07:57:33.352Z,is
2017-04-21T07:58:34.475Z,41.00
2017-04-21T07:59:29.532Z,41.20
2017-04-21T08:01:36.557Z,41.70
2017-04-21T08:01:42.081Z,41.30
2017-04-21T08:02:40.040Z,41.20
2017-04-21T08:03:30.261Z,41.20
2017-04-21T08:04:34.240Z,41.30
2017-04-21T08:05:32.848Z,41.60
2017-04-21T08:06:38.437Z,is
2017-04-21T08:07:32.328Z,43.20
2017-04-21T08:08:33.498Z,43.00
2017-04-21T08:09:29.498Z,43.70
2017-04-21T08:10:28.865Z,43.70
2017-04-21T08:11:28.945Z,44.20
2017-04-21T08:12:29.249Z,44.00
2017-04-21T08:13:33.453Z,43.80
2017-04-21T08:14:29.547Z,43.60
2017-04-21T08:15:22.259Z,43.70
2017-04-21T08:16:26.842Z,43.40
2017-04-21T08:17:27.733Z,43.20
2017-04-21T08:18:27.138Z,is
2017-04-21T08:19:33.507Z,42.80
2017-04-21T08:20:34.299Z,42.70
2017-04-21T08:21:32.687Z,42.70
2017-04-21T08:22:28.579Z,42.40
2017-04-21T08:23:33.780Z,42.20
2017-04-21T08:24:37.197Z,42.10
2017-04-21T08:25:32.906Z,42.10
2017-04-21T08:26:33.910Z,41.80
2017-04-21T08:27:37.165Z,is
2017-04-21T08:28:26.995Z,is
2017-04-21T08:29:28.490Z,41.40
2017-04-21T08:30:37.475Z,41.40
2017-04-21T08:31:34.624Z,41.40
2017-04-21T08:32:29.380Z,41.20
2017-04-21T08:33:29.309Z,41.20
2017-04-21T08:34:39.483Z,40.70
2017-04-21T08:35:33.842Z,41.00
2017-04-21T08:36:34.193Z,40.90
2017-04-21T08:37:32.826Z,40.90
2017-04-21T08:38:28.659Z,41.00
2017-04-21T08:39:26.586Z,40.90
2017-04-21T08:40:33.730Z,40.70
2017-04-21T08:41:34.145Z,40.70
2017-04-21T08:42:32.880Z,40.60
2017-04-21T08:43:33.822Z,40.60
2017-04-21T08:44:33.470Z,40.30
2017-04-21T08:45:26.397Z,is
2017-04-21T08:46:35.931Z,is
2017-04-21T08:47:32.966Z,40.90
2017-04-21T08:48:32.867Z,is
2017-04-21T08:49:33.305Z,40.20
2017-04-21T08:50:33.895Z,39.90
2017-04-21T08:51:37.387Z,40.00
2017-04-21T08:52:27.205Z,39.90
2017-04-21T08:53:34.104Z,40.00
2017-04-21T08:54:45.373Z,39.90
2017-04-21T08:55:33.114Z,39.90
2017-04-21T08:56:29.275Z,39.80
2017-04-21T08:57:35.140Z,39.80
2017-04-21T08:58:38.765Z,39.80
2017-04-21T08:59:43.481Z,39.60
2017-04-21T09:00:37.791Z,39.60
2017-04-21T09:01:33.251Z,39.40
2017-04-21T09:02:27.513Z,39.30
2017-04-21T09:03:28.518Z,39.30
2017-04-21T09:04:28.516Z,38.90
2017-04-21T09:05:33.832Z,39.00
2017-04-21T09:06:33.850Z,38.90
2017-04-21T09:07:47.205Z,39.10
2017-04-21T09:08:36.573Z,39.00
2017-04-21T09:09:30.157Z,39.10
2017-04-21T09:10:27.300Z,39.00
2017-04-21T09:11:27.186Z,38.90
2017-04-21T09:12:27.084Z,39.00
2017-04-21T09:13:37.258Z,39.00
2017-04-21T09:14:38.450Z,39.10
2017-04-21T09:15:27.796Z,39.00
2017-04-21T09:16:34.188Z,39.00
2017-04-21T09:17:37.163Z,39.00
2017-04-21T09:18:28.531Z,39.00
2017-04-21T09:19:34.118Z,39.00
2017-04-21T09:20:33.845Z,39.00
2017-04-21T09:21:26.431Z,39.00
2017-04-21T09:22:29.013Z,39.00
2017-04-21T09:23:31.847Z,39.10
2017-04-21T09:24:33.391Z,39.00
2017-04-21T09:25:28.955Z,39.00
2017-04-21T09:26:38.454Z,39.00
2017-04-21T09:27:28.624Z,39.00
2017-04-21T09:28:34.526Z,39.00
2017-04-21T09:29:33.850Z,39.00
2017-04-21T09:30:32.975Z,39.10
2017-04-21T09:31:58.429Z,39.10
2017-04-21T09:34:39.773Z,39.00
2017-04-21T09:34:45.708Z,39.10
2017-04-21T09:34:45.720Z,39.00
2017-04-21T09:36:18.023Z,39.00
2017-04-21T09:36:29.924Z,39.10
2017-04-21T09:37:28.349Z,39.10
2017-04-21T09:38:39.717Z,39.00
2017-04-21T09:39:28.924Z,39.10
2017-04-21T09:40:36.853Z,39.00
2017-04-21T09:41:33.713Z,39.10
2017-04-21T09:42:59.876Z,39.10
2017-04-21T09:44:16.211Z,39.10
2017-04-21T09:44:47.090Z,39.10
2017-04-21T09:45:36.504Z,39.20
2017-04-21T09:46:33.323Z,39.20
2017-04-21T09:47:37.976Z,39.20
2017-04-21T09:48:27.774Z,39.30
2017-04-21T09:49:32.761Z,39.40
2017-04-21T09:51:09.263Z,39.40
2017-04-21T09:55:39.931Z,39.40
2017-04-21T09:56:45.438Z,39.40
2017-04-21T09:57:23.193Z,39.40
2017-04-21T09:58:18.739Z,39.40
2017-04-21T09:59:39.114Z,39.50
2017-04-21T10:00:18.202Z,39.30
2017-04-21T10:01:26.623Z,39.50
2017-04-21T10:02:34.677Z,39.40
2017-04-21T10:03:42.980Z,39.40
2017-04-21T10:04:23.414Z,39.60
2017-04-21T10:05:24.491Z,39.50
2017-04-21T10:06:25.399Z,is
2017-04-21T10:07:26.769Z,39.50
2017-04-21T10:08:22.310Z,39.60
2017-04-21T10:08:27.503Z,39.50
2017-04-21T10:08:33.342Z,is
2017-04-21T10:08:38.238Z,39.60
2017-04-21T10:08:43.398Z,39.60
2017-04-21T10:09:36.456Z,39.50
2017-04-21T10:10:31.689Z,39.60
2017-04-21T10:11:28.577Z,39.60
2017-04-21T10:12:28.745Z,39.80
2017-04-21T10:13:32.899Z,39.60
2017-04-21T10:14:27.174Z,39.70
2017-04-21T10:15:23.211Z,39.60
2017-04-21T10:16:28.475Z,39.60
2017-04-21T10:17:27.919Z,39.70
2017-04-21T10:18:34.122Z,39.70
2017-04-21T10:19:36.162Z,38.70
2017-04-21T10:20:28.691Z,38.80
2017-04-21T10:21:28.434Z,39.70
2017-04-21T10:22:28.773Z,39.70
2017-04-21T10:23:32.773Z,39.70
2017-04-21T10:24:40.260Z,39.50
2017-04-21T10:25:33.302Z,is
2017-04-21T10:26:30.280Z,39.80
2017-04-21T10:27:28.377Z,39.80
2017-04-21T10:28:32.093Z,39.70
2017-04-21T10:29:37.119Z,39.70
2017-04-21T10:30:29.022Z,39.80
2017-04-21T10:31:26.981Z,39.80
2017-04-21T10:32:41.030Z,39.70
2017-04-21T10:33:36.227Z,39.90
2017-04-21T10:34:31.782Z,39.80
2017-04-21T10:35:34.743Z,is
2017-04-21T10:36:34.382Z,39.70
2017-04-21T10:37:36.691Z,39.90
2017-04-21T10:38:26.214Z,39.80
2017-04-21T10:39:34.720Z,39.80
2017-04-21T10:40:28.270Z,39.70
2017-04-21T10:41:34.621Z,40.00
2017-04-21T10:42:27.797Z,39.80
2017-04-21T10:43:27.367Z,39.80
2017-04-21T10:44:40.246Z,39.80
2017-04-21T10:45:32.897Z,39.80
2017-04-21T10:46:43.305Z,39.80
2017-04-21T10:47:32.851Z,39.90
2017-04-21T10:48:26.966Z,39.80
2017-04-21T10:49:41.507Z,39.80
2017-04-21T10:50:27.362Z,39.90
2017-04-21T10:51:32.803Z,39.90
2017-04-21T10:52:37.296Z,39.80
2017-04-21T10:53:34.064Z,39.10
2017-04-21T10:54:33.416Z,39.90
2017-04-21T10:55:33.314Z,39.90
2017-04-21T10:56:33.415Z,39.80
2017-04-21T10:57:33.614Z,40.00
2017-04-21T10:58:38.513Z,39.90
2017-04-21T10:59:32.735Z,40.00
2017-04-21T11:00:38.855Z,40.00
2017-04-21T11:01:32.849Z,40.00
2017-04-21T11:02:30.621Z,40.00
2017-04-21T11:03:35.440Z,40.00
2017-04-21T11:04:29.985Z,40.10
2017-04-21T11:05:33.676Z,40.00
2017-04-21T11:06:28.822Z,40.60
2017-04-21T11:07:29.076Z,40.10
2017-04-21T11:08:43.097Z,40.10
2017-04-21T11:09:38.305Z,40.10
2017-04-21T11:10:27.731Z,40.10
2017-04-21T11:11:27.159Z,40.20
2017-04-21T11:12:27.553Z,40.20
2017-04-21T11:13:28.421Z,40.20
2017-04-21T11:14:29.152Z,40.20
2017-04-21T11:15:38.312Z,40.20
2017-04-21T11:16:34.457Z,40.20
2017-04-21T11:17:28.837Z,40.10
2017-04-21T11:18:47.336Z,40.20
2017-04-21T11:19:32.772Z,40.20
2017-04-21T11:20:33.990Z,40.20
2017-04-21T11:21:27.699Z,is
2017-04-21T11:22:28.704Z,40.20
2017-04-21T11:23:26.920Z,is
2017-04-21T11:24:32.900Z,40.20
2017-04-21T11:25:37.259Z,40.20
2017-04-21T11:26:28.732Z,40.20
2017-04-21T11:27:33.002Z,40.20
2017-04-21T11:28:32.699Z,40.20
2017-04-21T11:29:29.290Z,40.20
2017-04-21T11:30:29.168Z,40.20
2017-04-21T11:31:38.443Z,40.20
2017-04-21T11:32:41.892Z,40.20
2017-04-21T11:33:37.176Z,40.20
2017-04-21T11:34:26.791Z,39.30
2017-04-21T11:35:27.749Z,is
2017-04-21T11:36:28.457Z,40.20
2017-04-21T11:37:29.212Z,40.20
2017-04-21T11:38:28.515Z,40.20
2017-04-21T11:39:35.255Z,40.20
2017-04-21T11:40:34.250Z,40.20
2017-04-21T11:41:29.259Z,40.20
2017-04-21T11:42:38.150Z,40.20
2017-04-21T11:43:27.133Z,40.30
2017-04-21T11:44:36.621Z,40.20
2017-04-21T11:45:36.559Z,40.30
2017-04-21T11:46:37.399Z,40.20
2017-04-21T11:47:33.374Z,40.20
2017-04-21T11:48:33.684Z,40.20
2017-04-21T11:49:33.463Z,40.20
2017-04-21T11:50:33.786Z,40.30
2017-04-21T11:51:29.190Z,40.30
2017-04-21T11:52:33.758Z,40.30
2017-04-21T11:53:28.840Z,40.40
2017-04-21T11:54:26.865Z,40.40
2017-04-21T11:55:32.917Z,is
2017-04-21T11:56:36.489Z,40.30
2017-04-21T11:57:32.599Z,40.40
2017-04-21T11:58:34.289Z,40.20
2017-04-21T11:59:33.396Z,40.40
2017-04-21T12:00:40.552Z,40.50
2017-04-21T12:01:47.285Z,40.20
2017-04-21T12:02:37.136Z,40.30
2017-04-21T12:03:42.986Z,40.30
2017-04-21T12:04:36.997Z,40.40
2017-04-21T12:05:37.057Z,40.30
2017-04-21T12:06:34.395Z,40.40
2017-04-21T12:07:38.422Z,40.60
2017-04-21T12:08:28.489Z,40.30
2017-04-21T12:09:39.898Z,40.30
2017-04-21T12:10:33.083Z,40.40
2017-04-21T12:11:28.965Z,40.50
2017-04-21T12:12:29.212Z,40.30
2017-04-21T12:13:28.553Z,40.50
2017-04-21T12:14:43.151Z,is
2017-04-21T12:15:34.694Z,40.50
2017-04-21T12:16:25.633Z,40.30
2017-04-21T12:17:32.002Z,40.40
2017-04-21T12:18:33.157Z,is
2017-04-21T12:19:28.457Z,40.50
2017-04-21T12:20:34.165Z,40.40
2017-04-21T12:21:38.458Z,40.40
2017-04-21T12:22:28.703Z,40.50
2017-04-21T12:23:34.460Z,is
2017-04-21T12:24:34.042Z,40.30
2017-04-21T12:25:43.160Z,40.40
2017-04-21T12:26:33.177Z,40.40
2017-04-21T12:27:28.265Z,40.40
2017-04-21T12:28:43.211Z,40.30
2017-04-21T12:29:27.272Z,40.30
2017-04-21T12:30:28.483Z,40.30
2017-04-21T12:31:28.877Z,40.30
2017-04-21T12:32:35.067Z,40.30
2017-04-21T12:33:34.495Z,40.40
2017-04-21T12:34:27.370Z,40.30
2017-04-21T12:35:33.452Z,40.30
2017-04-21T12:36:29.521Z,40.40
2017-04-21T12:37:36.886Z,40.40
2017-04-21T12:38:36.421Z,40.70
2017-04-21T12:39:26.836Z,40.40
2017-04-21T12:40:38.361Z,40.50
2017-04-21T12:41:37.527Z,40.60
2017-04-21T12:42:43.148Z,40.50
2017-04-21T12:43:37.489Z,40.50
2017-04-21T12:44:32.839Z,is
2017-04-21T12:45:33.849Z,40.50
2017-04-21T12:46:36.921Z,40.60
2017-04-21T12:47:41.263Z,40.50
2017-04-21T12:48:32.872Z,is
2017-04-21T12:49:27.786Z,40.50
2017-04-21T12:50:37.432Z,40.60
2017-04-21T12:51:27.393Z,40.50
2017-04-21T12:52:27.497Z,is
2017-04-21T12:53:28.415Z,40.50
2017-04-21T12:54:34.229Z,40.50
2017-04-21T12:55:34.244Z,40.60
2017-04-21T12:56:39.124Z,40.60
2017-04-21T12:57:34.946Z,40.60
2017-04-21T12:58:31.655Z,40.60
2017-04-21T12:59:33.677Z,40.60
2017-04-21T13:00:37.049Z,40.70
2017-04-21T13:01:34.334Z,40.40